createdAt,value
2023-01-13T00:00:51.552Z,8.81
2023-01-13T00:03:18.038Z,8.79
2023-01-13T00:05:44.563Z,8.92
2023-01-13T00:08:11.836Z,8.95
2023-01-13T00:10:38.448Z,9.07
2023-01-13T00:13:05.258Z,9.07
2023-01-13T00:15:32.365Z,9.05
2023-01-13T00:17:59.310Z,9.03
2023-01-13T00:20:25.891Z,9.01
2023-01-13T00:22:52.467Z,8.97
2023-01-13T00:25:18.948Z,8.94
2023-01-13T00:27:45.536Z,8.95
2023-01-13T00:30:12.325Z,9.10
2023-01-13T00:32:38.915Z,9.20
2023-01-13T00:35:05.684Z,9.16
2023-01-13T00:37:32.212Z,9.12
2023-01-13T00:39:58.750Z,9.01
2023-01-13T00:42:44.004Z,8.83
2023-01-13T00:45:10.763Z,9.00
2023-01-13T00:47:37.283Z,9.03
2023-01-13T00:50:03.946Z,9.08
2023-01-13T00:52:32.162Z,8.99
2023-01-13T00:54:58.718Z,9.09
2023-01-13T00:57:25.264Z,9.04
2023-01-13T00:59:51.850Z,9.00
2023-01-13T01:02:18.471Z,8.99
2023-01-13T01:04:45.063Z,8.95
2023-01-13T01:07:11.834Z,8.91
2023-01-13T01:09:39.638Z,8.88
2023-01-13T01:12:06.317Z,8.86
2023-01-13T01:14:33.032Z,8.78
2023-01-13T01:16:59.715Z,8.70
2023-01-13T01:19:26.256Z,8.63
2023-01-13T01:21:52.782Z,8.65
2023-01-13T01:24:19.384Z,8.63
2023-01-13T01:26:45.895Z,8.54
2023-01-13T01:29:13.810Z,8.47
2023-01-13T01:31:40.325Z,8.51
2023-01-13T01:34:06.939Z,8.44
2023-01-13T01:36:35.019Z,8.48
2023-01-13T01:39:01.644Z,8.42
2023-01-13T01:41:29.788Z,8.34
2023-01-13T01:44:00.214Z,8.30
2023-01-13T01:46:27.148Z,8.27
2023-01-13T01:48:55.889Z,8.26
2023-01-13T01:51:22.439Z,8.20
2023-01-13T01:53:48.971Z,8.16
2023-01-13T01:56:16.012Z,8.19
2023-01-13T01:58:46.517Z,8.31
2023-01-13T02:01:14.289Z,8.18
2023-01-13T02:03:43.443Z,8.23
2023-01-13T02:06:10.085Z,8.27
2023-01-13T02:08:39.276Z,8.35
2023-01-13T02:11:05.864Z,8.38
2023-01-13T02:13:32.431Z,8.33
2023-01-13T02:16:07.608Z,8.44
2023-01-13T02:18:34.201Z,8.43
2023-01-13T02:21:13.912Z,8.43
2023-01-13T02:24:17.657Z,8.57
2023-01-13T02:26:59.230Z,8.65
2023-01-13T02:30:07.552Z,8.72
2023-01-13T02:32:51.280Z,8.76
2023-01-13T02:35:36.530Z,8.78
2023-01-13T02:38:03.315Z,8.83
2023-01-13T02:40:51.005Z,8.74
2023-01-13T02:43:42.290Z,8.82
2023-01-13T02:46:14.586Z,8.96
2023-01-13T02:48:42.568Z,8.95
2023-01-13T02:51:13.404Z,8.96
2023-01-13T02:54:00.163Z,9.04
2023-01-13T02:56:27.190Z,9.01
2023-01-13T02:58:55.834Z,8.97
2023-01-13T03:01:22.390Z,9.06
2023-01-13T03:03:50.145Z,9.07
2023-01-13T03:06:16.518Z,9.07
2023-01-13T03:08:46.727Z,9.10
2023-01-13T03:11:14.443Z,9.16
2023-01-13T03:14:02.414Z,9.12
2023-01-13T03:16:38.500Z,9.09
2023-01-13T03:19:07.731Z,9.28
2023-01-13T03:21:37.246Z,9.16
2023-01-13T03:24:06.802Z,9.23
2023-01-13T03:26:42.215Z,9.20
2023-01-13T03:29:08.552Z,9.16
2023-01-13T03:31:37.872Z,9.23
2023-01-13T03:34:08.350Z,9.25
2023-01-13T03:36:36.467Z,9.20
2023-01-13T03:39:16.562Z,9.29
2023-01-13T03:41:49.528Z,9.38
2023-01-13T03:44:23.165Z,9.40
2023-01-13T03:47:08.447Z,9.38
2023-01-13T03:49:39.469Z,9.40
2023-01-13T03:52:08.985Z,9.39
2023-01-13T03:54:38.455Z,9.44
2023-01-13T03:57:07.566Z,9.47
2023-01-13T03:59:36.170Z,9.49
2023-01-13T04:02:06.734Z,9.49
2023-01-13T04:04:35.709Z,9.47
2023-01-13T04:07:10.097Z,9.45
2023-01-13T04:09:56.673Z,9.49
2023-01-13T04:12:26.412Z,9.48
2023-01-13T04:14:52.924Z,9.53
2023-01-13T04:17:19.638Z,9.51
2023-01-13T04:19:46.021Z,9.43
2023-01-13T04:22:12.811Z,9.44
2023-01-13T04:24:39.211Z,9.42
2023-01-13T04:27:06.287Z,9.41
2023-01-13T04:29:32.724Z,9.44
2023-01-13T04:31:59.113Z,9.49
2023-01-13T04:34:28.161Z,9.43
2023-01-13T04:36:54.674Z,9.52
2023-01-13T04:39:21.031Z,9.52
2023-01-13T04:41:59.410Z,9.50
2023-01-13T04:44:26.709Z,9.51
2023-01-13T04:46:53.422Z,9.52
2023-01-13T04:49:19.857Z,9.51
2023-01-13T04:51:46.236Z,9.55
2023-01-13T04:54:12.837Z,9.52
2023-01-13T04:56:39.317Z,9.51
2023-01-13T04:59:05.873Z,9.57
2023-01-13T05:01:32.475Z,9.53
2023-01-13T05:03:58.923Z,9.47
2023-01-13T05:06:25.326Z,9.50
2023-01-13T05:08:51.813Z,9.48
2023-01-13T05:11:36.839Z,9.39
2023-01-13T05:14:22.243Z,9.49
2023-01-13T05:17:03.442Z,9.52
2023-01-13T05:19:34.076Z,9.64
2023-01-13T05:22:19.817Z,9.64
2023-01-13T05:25:04.676Z,9.63
2023-01-13T05:27:31.829Z,9.70
2023-01-13T05:29:58.526Z,9.67
2023-01-13T05:32:25.414Z,9.65
2023-01-13T05:34:51.755Z,9.61
2023-01-13T05:37:18.131Z,9.68
2023-01-13T05:40:03.134Z,9.61
2023-01-13T05:42:47.956Z,9.67
2023-01-13T05:45:14.369Z,9.61
2023-01-13T05:47:40.817Z,9.52
2023-01-13T05:50:07.461Z,9.57
2023-01-13T05:52:33.971Z,9.55
2023-01-13T05:55:00.351Z,9.58
2023-01-13T05:57:26.796Z,9.65
2023-01-13T05:59:53.160Z,9.66
2023-01-13T06:02:19.535Z,9.54
2023-01-13T06:04:46.050Z,9.51
2023-01-13T06:07:12.651Z,9.66
2023-01-13T06:09:39.200Z,9.67
2023-01-13T06:12:05.700Z,9.76
2023-01-13T06:14:41.188Z,9.73
2023-01-13T06:17:08.544Z,9.68
2023-01-13T06:19:35.146Z,9.67
2023-01-13T06:22:07.894Z,9.67
2023-01-13T06:24:34.495Z,9.71
2023-01-13T06:27:01.011Z,9.62
2023-01-13T06:29:27.673Z,9.65
2023-01-13T06:31:54.084Z,9.68
2023-01-13T06:34:20.975Z,9.71
2023-01-13T06:36:51.747Z,9.67
2023-01-13T06:39:20.183Z,9.71
2023-01-13T06:42:06.491Z,9.70
2023-01-13T06:44:33.134Z,9.72
2023-01-13T06:46:59.548Z,9.72
2023-01-13T06:49:25.978Z,9.71
2023-01-13T06:51:52.365Z,9.69
2023-01-13T06:54:18.830Z,9.71
2023-01-13T06:56:45.173Z,9.68
2023-01-13T06:59:11.565Z,9.66
2023-01-13T07:01:38.206Z,9.70
2023-01-13T07:04:04.901Z,9.69
2023-01-13T07:06:31.424Z,9.66
2023-01-13T07:08:57.849Z,9.72
2023-01-13T07:11:25.023Z,9.73
2023-01-13T07:14:09.921Z,9.71
2023-01-13T07:16:36.389Z,9.77
2023-01-13T07:19:03.249Z,9.76
2023-01-13T07:21:29.615Z,9.71
2023-01-13T07:23:56.096Z,9.68
2023-01-13T07:26:22.522Z,9.69
2023-01-13T07:28:48.972Z,9.73
2023-01-13T07:31:16.926Z,9.65
2023-01-13T07:33:43.403Z,9.76
2023-01-13T07:36:10.053Z,9.64
2023-01-13T07:38:36.728Z,9.74
2023-01-13T07:41:23.087Z,9.75
2023-01-13T07:43:49.761Z,9.79
2023-01-13T07:46:16.727Z,9.75
2023-01-13T07:48:43.521Z,9.84
2023-01-13T07:51:11.691Z,9.76
2023-01-13T07:53:38.652Z,9.75
2023-01-13T07:56:06.567Z,9.71
2023-01-13T07:58:36.755Z,9.69
2023-01-13T08:01:10.675Z,9.67
2023-01-13T08:03:37.153Z,9.75
2023-01-13T08:06:04.097Z,9.74
2023-01-13T08:08:30.582Z,9.78
2023-01-13T08:11:00.246Z,9.68
2023-01-13T08:13:26.828Z,9.63
2023-01-13T08:15:58.443Z,9.65
2023-01-13T08:18:24.827Z,9.63
2023-01-13T08:20:54.700Z,9.64
2023-01-13T08:23:21.944Z,9.53
2023-01-13T08:25:48.708Z,9.49
2023-01-13T08:28:16.002Z,9.54
2023-01-13T08:30:42.927Z,9.60
2023-01-13T08:33:10.760Z,9.64
2023-01-13T08:35:38.232Z,9.71
2023-01-13T08:38:05.040Z,9.69
2023-01-13T08:40:31.931Z,9.68
2023-01-13T08:42:58.428Z,9.69
2023-01-13T08:45:24.917Z,9.73
2023-01-13T08:47:51.556Z,9.72
2023-01-13T08:50:18.695Z,9.76
2023-01-13T08:52:45.333Z,9.66
2023-01-13T08:55:11.803Z,9.59
2023-01-13T08:57:38.251Z,9.56
2023-01-13T09:00:05.551Z,9.55
2023-01-13T09:02:32.226Z,9.57
2023-01-13T09:05:00.422Z,9.65
2023-01-13T09:07:26.838Z,9.70
2023-01-13T09:09:53.174Z,9.71
2023-01-13T09:12:51.644Z,9.73
2023-01-13T09:15:21.880Z,9.67
2023-01-13T09:17:48.324Z,9.75
2023-01-13T09:20:14.923Z,9.84
2023-01-13T09:22:41.503Z,9.92
2023-01-13T09:25:08.084Z,9.81
2023-01-13T09:27:34.486Z,8.96
2023-01-13T09:30:00.870Z,8.48
2023-01-13T09:32:27.245Z,8.16
2023-01-13T09:35:03.800Z,7.99
2023-01-13T09:37:32.067Z,7.73
2023-01-13T09:39:58.483Z,7.70
2023-01-13T09:42:55.859Z,7.63
2023-01-13T09:45:25.205Z,7.48
2023-01-13T09:47:58.136Z,7.36
2023-01-13T09:50:27.283Z,7.25
2023-01-13T09:52:53.820Z,7.20
2023-01-13T09:55:26.110Z,7.05
2023-01-13T09:57:52.648Z,6.98
2023-01-13T10:00:22.313Z,6.92
2023-01-13T10:03:02.374Z,6.86
2023-01-13T10:05:35.096Z,6.75
2023-01-13T10:08:15.533Z,6.74
2023-01-13T10:10:45.288Z,6.68
2023-01-13T10:13:17.673Z,6.78
2023-01-13T10:15:50.364Z,6.81
2023-01-13T10:18:34.681Z,6.81
2023-01-13T10:21:13.248Z,6.81
2023-01-13T10:23:58.408Z,6.86
2023-01-13T10:26:34.501Z,6.84
2023-01-13T10:29:00.878Z,6.83
2023-01-13T10:31:27.370Z,6.86
2023-01-13T10:34:01.112Z,6.90
2023-01-13T10:36:27.737Z,6.92
2023-01-13T10:38:57.932Z,6.97
2023-01-13T10:41:25.521Z,6.97
2023-01-13T10:43:51.875Z,7.00
2023-01-13T10:46:19.052Z,6.99
2023-01-13T10:48:52.906Z,6.97
2023-01-13T10:51:19.275Z,6.95
2023-01-13T10:53:47.145Z,6.89
2023-01-13T10:56:17.386Z,6.95
2023-01-13T10:58:43.803Z,6.95
2023-01-13T11:01:18.382Z,7.01
2023-01-13T11:03:47.603Z,7.06
2023-01-13T11:06:25.012Z,7.11
2023-01-13T11:08:52.545Z,7.24
2023-01-13T11:11:26.512Z,7.26
2023-01-13T11:14:13.889Z,7.35
2023-01-13T11:16:52.787Z,7.37
2023-01-13T11:19:21.593Z,7.40
2023-01-13T11:21:53.433Z,7.49
2023-01-13T11:24:29.807Z,7.52
2023-01-13T11:27:02.140Z,7.38
2023-01-13T11:29:46.733Z,7.35
2023-01-13T11:32:16.791Z,7.27
2023-01-13T11:34:45.121Z,7.21
2023-01-13T11:37:23.525Z,7.23
2023-01-13T11:39:49.914Z,7.33
2023-01-13T11:42:28.649Z,7.45
2023-01-13T11:45:01.140Z,7.49
2023-01-13T11:47:27.840Z,7.53
2023-01-13T11:49:54.351Z,7.54
2023-01-13T11:52:42.946Z,7.52
2023-01-13T11:55:17.460Z,7.56
2023-01-13T11:58:02.355Z,7.52
2023-01-13T12:00:47.433Z,7.57
2023-01-13T12:03:22.252Z,7.60
2023-01-13T12:05:48.708Z,7.52
2023-01-13T12:08:18.322Z,7.61
2023-01-13T12:10:53.563Z,7.60
2023-01-13T12:13:38.968Z,7.52
2023-01-13T12:16:05.383Z,7.52
2023-01-13T12:18:34.577Z,7.68
2023-01-13T12:21:21.050Z,7.74
2023-01-13T12:24:02.613Z,7.77
2023-01-13T12:26:32.292Z,7.88
2023-01-13T12:28:58.699Z,7.87
2023-01-13T12:31:25.388Z,8.11
2023-01-13T12:34:00.146Z,8.30
2023-01-13T12:36:26.467Z,8.44
2023-01-13T12:38:57.420Z,8.55
2023-01-13T12:41:35.325Z,8.63
2023-01-13T12:44:17.059Z,8.58
2023-01-13T12:46:50.741Z,8.71
2023-01-13T12:49:21.960Z,8.68
2023-01-13T12:51:51.139Z,8.65
2023-01-13T12:54:31.223Z,8.50
2023-01-13T12:56:58.474Z,8.42
2023-01-13T12:59:24.804Z,8.32
2023-01-13T13:01:52.540Z,8.20
2023-01-13T13:04:41.783Z,8.28
2023-01-13T13:07:10.294Z,8.32
2023-01-13T13:09:42.517Z,8.33
2023-01-13T13:12:46.529Z,8.43
2023-01-13T13:15:20.856Z,8.46
2023-01-13T13:18:00.849Z,8.53
2023-01-13T13:20:45.877Z,8.60
2023-01-13T13:23:27.553Z,8.58
2023-01-13T13:26:12.822Z,8.53
2023-01-13T13:28:44.600Z,8.52
2023-01-13T13:31:40.402Z,8.54
2023-01-13T13:34:09.795Z,8.43
2023-01-13T13:36:45.318Z,8.46
2023-01-13T13:39:45.370Z,8.42
2023-01-13T13:42:32.670Z,8.43
2023-01-13T13:45:19.095Z,8.48
2023-01-13T13:47:45.532Z,8.45
2023-01-13T13:50:20.516Z,8.42
2023-01-13T13:53:05.173Z,8.49
2023-01-13T13:55:31.963Z,8.49
2023-01-13T13:57:59.040Z,8.49
2023-01-13T14:00:27.580Z,8.47
2023-01-13T14:02:57.246Z,8.42
2023-01-13T14:05:46.343Z,8.43
2023-01-13T14:08:15.137Z,8.38
2023-01-13T14:10:43.366Z,8.40
2023-01-13T14:13:29.081Z,8.42
2023-01-13T14:16:05.595Z,8.36
2023-01-13T14:18:33.078Z,8.42
2023-01-13T14:21:00.823Z,8.33
2023-01-13T14:23:31.679Z,8.29
2023-01-13T14:26:02.206Z,8.33
2023-01-13T14:28:30.171Z,8.34
2023-01-13T14:30:56.971Z,8.29
2023-01-13T14:33:26.913Z,8.26
2023-01-13T14:36:11.737Z,8.22
2023-01-13T14:38:38.233Z,8.26
2023-01-13T14:41:19.944Z,8.20
2023-01-13T14:43:47.429Z,8.07
2023-01-13T14:46:14.656Z,8.06
2023-01-13T14:48:47.020Z,7.97
2023-01-13T14:51:20.296Z,7.90
2023-01-13T14:53:48.510Z,7.92
2023-01-13T14:56:33.733Z,7.84
2023-01-13T14:59:02.393Z,7.88
2023-01-13T15:01:35.110Z,7.89
2023-01-13T15:04:20.294Z,7.92
2023-01-13T15:06:47.563Z,7.92
2023-01-13T15:09:13.991Z,7.77
2023-01-13T15:11:40.877Z,7.69
2023-01-13T15:14:10.699Z,7.56
2023-01-13T15:16:37.151Z,7.29
2023-01-13T15:19:04.356Z,7.13
2023-01-13T15:21:30.725Z,7.01
2023-01-13T15:23:57.186Z,6.94
2023-01-13T15:26:27.661Z,6.89
2023-01-13T15:28:55.785Z,6.84
2023-01-13T15:31:22.937Z,6.71
2023-01-13T15:33:49.708Z,6.53
2023-01-13T15:36:22.123Z,6.40
2023-01-13T15:38:48.771Z,6.24
2023-01-13T15:41:15.195Z,6.24
2023-01-13T15:44:00.113Z,6.13
2023-01-13T15:46:39.142Z,6.16
2023-01-13T15:49:17.193Z,6.13
2023-01-13T15:51:44.188Z,6.07
2023-01-13T15:54:13.388Z,6.06
2023-01-13T15:56:41.997Z,6.07
2023-01-13T15:59:21.077Z,6.03
2023-01-13T16:01:47.766Z,5.90
2023-01-13T16:04:14.210Z,5.80
2023-01-13T16:06:40.919Z,5.80
2023-01-13T16:09:07.387Z,5.63
2023-01-13T16:11:33.920Z,5.57
2023-01-13T16:14:00.345Z,5.49
2023-01-13T16:16:27.941Z,5.57
2023-01-13T16:18:54.533Z,5.55
2023-01-13T16:21:21.583Z,5.58
2023-01-13T16:23:48.844Z,5.54
2023-01-13T16:26:18.375Z,5.46
2023-01-13T16:28:44.819Z,5.42
2023-01-13T16:31:37.279Z,5.31
2023-01-13T16:34:04.284Z,5.26
2023-01-13T16:36:32.136Z,5.27
2023-01-13T16:38:58.594Z,5.20
2023-01-13T16:41:25.124Z,5.23
2023-01-13T16:43:51.995Z,5.31
2023-01-13T16:46:28.898Z,5.25
2023-01-13T16:48:56.990Z,5.25
2023-01-13T16:51:24.323Z,5.33
2023-01-13T16:53:51.291Z,5.39
2023-01-13T16:56:21.336Z,5.35
2023-01-13T16:58:47.985Z,5.29
2023-01-13T17:01:18.726Z,5.30
2023-01-13T17:03:49.240Z,5.36
2023-01-13T17:06:17.387Z,5.29
2023-01-13T17:08:43.836Z,5.39
2023-01-13T17:11:10.293Z,5.38
2023-01-13T17:13:36.813Z,5.50
2023-01-13T17:16:03.344Z,5.59
2023-01-13T17:18:29.904Z,5.58
2023-01-13T17:20:58.132Z,5.64
2023-01-13T17:23:24.919Z,5.62
2023-01-13T17:25:54.673Z,5.69
2023-01-13T17:28:21.341Z,5.69
2023-01-13T17:30:47.993Z,5.77
2023-01-13T17:33:14.396Z,5.66
2023-01-13T17:35:40.858Z,5.62
2023-01-13T17:38:07.233Z,5.66
2023-01-13T17:40:33.652Z,5.69
2023-01-13T17:43:00.089Z,5.82
2023-01-13T17:45:26.814Z,5.85
2023-01-13T17:47:57.258Z,5.90
2023-01-13T17:50:24.251Z,5.92
2023-01-13T17:52:50.775Z,5.89
2023-01-13T17:55:17.474Z,5.91
2023-01-13T17:57:44.109Z,5.97
2023-01-13T18:00:12.409Z,6.04
2023-01-13T18:02:38.947Z,6.05
2023-01-13T18:05:05.589Z,6.06
2023-01-13T18:07:32.038Z,6.06
2023-01-13T18:09:58.534Z,6.18
2023-01-13T18:12:25.042Z,6.18
2023-01-13T18:14:51.466Z,6.07
2023-01-13T18:17:18.468Z,5.97
2023-01-13T18:20:03.335Z,5.91
2023-01-13T18:22:48.638Z,5.94
2023-01-13T18:25:33.535Z,5.83
2023-01-13T18:28:03.803Z,5.79
2023-01-13T18:30:30.544Z,5.78
2023-01-13T18:32:57.664Z,5.80
2023-01-13T18:35:24.083Z,5.72
2023-01-13T18:37:52.115Z,5.66
2023-01-13T18:40:18.621Z,5.79
2023-01-13T18:42:51.344Z,5.78
2023-01-13T18:45:28.450Z,5.79
2023-01-13T18:47:56.197Z,5.78
2023-01-13T18:50:23.261Z,5.81
2023-01-13T18:52:50.037Z,5.85
2023-01-13T18:55:16.487Z,5.94
2023-01-13T18:57:42.958Z,5.96
2023-01-13T19:00:10.736Z,5.99
2023-01-13T19:02:37.228Z,5.97
2023-01-13T19:05:04.030Z,6.07
2023-01-13T19:07:31.966Z,6.05
2023-01-13T19:09:59.623Z,6.12
2023-01-13T19:12:26.547Z,6.12
2023-01-13T19:14:56.504Z,6.18
2023-01-13T19:17:23.730Z,6.19
2023-01-13T19:19:51.620Z,6.23
2023-01-13T19:22:19.892Z,6.20
2023-01-13T19:24:46.508Z,6.36
2023-01-13T19:27:16.361Z,6.41
2023-01-13T19:29:47.361Z,6.43
2023-01-13T19:32:20.121Z,6.36
2023-01-13T19:34:47.865Z,6.33
2023-01-13T19:37:14.294Z,6.26
2023-01-13T19:39:40.942Z,6.27
2023-01-13T19:42:26.092Z,6.34
2023-01-13T19:45:10.979Z,6.24
2023-01-13T19:47:38.772Z,6.24
2023-01-13T19:50:07.975Z,6.33
2023-01-13T19:52:34.590Z,6.34
2023-01-13T19:55:02.115Z,6.35
2023-01-13T19:57:28.747Z,6.40
2023-01-13T19:59:55.278Z,6.38
2023-01-13T20:02:28.168Z,6.38
2023-01-13T20:04:56.097Z,6.42
2023-01-13T20:07:24.222Z,6.39
2023-01-13T20:09:52.210Z,6.37
2023-01-13T20:12:19.949Z,6.33
2023-01-13T20:14:47.691Z,6.27
2023-01-13T20:17:14.848Z,6.28
2023-01-13T20:19:41.553Z,6.28
2023-01-13T20:22:08.430Z,6.28
2023-01-13T20:24:34.852Z,6.33
2023-01-13T20:27:01.846Z,6.34
2023-01-13T20:29:29.851Z,6.31
2023-01-13T20:31:56.825Z,6.34
2023-01-13T20:34:23.914Z,6.32
2023-01-13T20:36:50.876Z,6.37
2023-01-13T20:39:21.828Z,6.46
2023-01-13T20:42:07.118Z,6.52
2023-01-13T20:44:33.789Z,6.49
2023-01-13T20:47:00.453Z,6.56
2023-01-13T20:49:27.548Z,6.53
2023-01-13T20:51:54.423Z,6.53
2023-01-13T20:54:21.193Z,6.54
2023-01-13T20:56:47.917Z,6.60
2023-01-13T20:59:14.630Z,6.59
2023-01-13T21:01:41.086Z,6.55
2023-01-13T21:04:07.504Z,6.56
2023-01-13T21:06:34.370Z,6.51
2023-01-13T21:09:00.822Z,6.42
2023-01-13T21:11:46.711Z,6.35
2023-01-13T21:14:35.712Z,6.31
2023-01-13T21:17:02.506Z,6.25
2023-01-13T21:19:28.938Z,6.39
2023-01-13T21:21:55.826Z,6.33
2023-01-13T21:24:22.513Z,6.38
2023-01-13T21:26:53.615Z,6.40
2023-01-13T21:29:20.091Z,6.44
2023-01-13T21:31:46.524Z,6.46
2023-01-13T21:34:12.910Z,6.50
2023-01-13T21:36:39.275Z,6.51
2023-01-13T21:39:06.180Z,6.54
2023-01-13T21:41:51.417Z,6.52
2023-01-13T21:44:37.326Z,6.42
2023-01-13T21:47:22.699Z,6.48
2023-01-13T21:49:49.181Z,6.51
2023-01-13T21:52:15.552Z,6.46
2023-01-13T21:55:00.554Z,6.44
2023-01-13T21:57:27.504Z,6.50
2023-01-13T21:59:54.120Z,6.54
2023-01-13T22:02:31.891Z,6.55
2023-01-13T22:05:02.120Z,6.54
2023-01-13T22:07:28.556Z,6.60
2023-01-13T22:09:55.224Z,6.55
2023-01-13T22:12:25.076Z,6.54
2023-01-13T22:14:52.118Z,6.53
2023-01-13T22:17:22.595Z,6.49
2023-01-13T22:19:49.765Z,6.36
2023-01-13T22:22:18.632Z,6.33
2023-01-13T22:24:47.392Z,6.29
2023-01-13T22:27:14.910Z,6.25
2023-01-13T22:29:41.398Z,6.21
2023-01-13T22:32:07.724Z,6.12
2023-01-13T22:34:34.327Z,6.10
2023-01-13T22:37:00.801Z,6.07
2023-01-13T22:39:27.155Z,6.03
2023-01-13T22:41:53.504Z,6.01
2023-01-13T22:44:20.560Z,6.03
2023-01-13T22:46:46.950Z,6.09
2023-01-13T22:49:13.956Z,6.12
2023-01-13T22:51:40.594Z,6.13
2023-01-13T22:54:06.970Z,6.17
2023-01-13T22:56:33.786Z,6.14
2023-01-13T22:59:00.790Z,6.08
2023-01-13T23:01:28.459Z,6.11
2023-01-13T23:03:55.230Z,6.16
2023-01-13T23:06:22.184Z,6.14
2023-01-13T23:08:48.966Z,6.14
2023-01-13T23:11:16.831Z,6.14
2023-01-13T23:13:43.487Z,6.19
2023-01-13T23:16:11.458Z,6.18
2023-01-13T23:18:37.922Z,6.17
2023-01-13T23:21:04.373Z,6.24
2023-01-13T23:23:30.993Z,6.21
2023-01-13T23:25:57.358Z,6.22
2023-01-13T23:28:23.735Z,6.28
2023-01-13T23:30:51.619Z,6.32
2023-01-13T23:33:18.266Z,6.37
2023-01-13T23:35:54.609Z,6.39
2023-01-13T23:38:20.945Z,6.40
2023-01-13T23:40:47.363Z,6.39
2023-01-13T23:43:13.713Z,6.41
2023-01-13T23:45:40.072Z,6.36
2023-01-13T23:48:06.700Z,6.34
2023-01-13T23:50:33.121Z,6.32
2023-01-13T23:52:59.533Z,6.22
2023-01-13T23:55:26.217Z,6.24
2023-01-13T23:57:52.544Z,6.32
